»·PEaware :: N754DW KSNA-KVNY

N754DW :: KSNA-KVNY

FLIGHT INFORMATION

Flight Status: Arrived
Operator: Privately registered:
United States
More flights under this callsign
Pilot: David W. (32310)
Aircraft: CESSNA T210 TURBO CENTURION
(T210)
More flights by this aircraft type
Origin: KSNA John Wayne-Orange Co
United States
Destination: KVNY Van Nuys
United States
More flights between these airports :: More routes between these airports
Route: SLI V23 POPPR SMO125 SMO SMO317 CANOG
File this flight plan on PilotEdge
Remarks:
Altitude:
(Current/Filed)
4,000ft
Speed:
(Current/Filed)
165kts
Departed: 30-Nov-20 12:45 PM
Arrived: 30-Nov-20 01:14 PM
Distance/Time
Traveled:
44nm/0:28
Distance/Time
To Go:
Arrived

Flight Plot

Page will automatically refresh every two minutes.


Map Options




Map Legend


Flown Route
Filed Route
Departure Airport
Arrival Airport
Navaid (VOR, NDB)
Fix

Horizontal Profiles

Position Reports

Time Latitude Longitude Heading Altitude Ground
Speed
30-Nov-20 12:24 33.670670 -117.868618 265 60ft 0kts
30-Nov-20 12:25 33.670670 -117.868618 265 60ft 0kts
30-Nov-20 12:26 33.670670 -117.868618 265 60ft 0kts
30-Nov-20 12:27 33.670670 -117.868618 265 60ft 0kts
30-Nov-20 12:28 33.670670 -117.868618 265 60ft 0kts
30-Nov-20 12:29 33.670670 -117.868618 265 60ft 0kts
30-Nov-20 12:30 33.670670 -117.868618 265 60ft 0kts
30-Nov-20 12:31 33.670670 -117.868618 265 60ft 0kts
30-Nov-20 12:32 33.670670 -117.868618 265 60ft 0kts
30-Nov-20 12:33 33.670670 -117.868618 265 60ft 0kts
30-Nov-20 12:34 33.670670 -117.868618 265 60ft 0kts
30-Nov-20 12:34 33.670670 -117.868618 265 60ft 0kts
30-Nov-20 12:36 33.670670 -117.868618 265 60ft 0kts
30-Nov-20 12:37 33.670670 -117.868618 265 60ft 0kts
30-Nov-20 12:37 33.670670 -117.868618 265 60ft 0kts
30-Nov-20 12:38 33.670670 -117.868618 265 60ft 0kts
30-Nov-20 12:39 33.672257 -117.868045 26 60ft 12kts
30-Nov-20 12:41 33.676126 -117.865805 27 60ft 15kts
30-Nov-20 12:41 33.679540 -117.863598 28 60ft 12kts
30-Nov-20 12:42 33.679975 -117.863652 297 60ft 0kts
30-Nov-20 12:43 33.679901 -117.864298 213 60ft 5kts
30-Nov-20 12:44 33.659473 -117.877114 217 678ft 113kts
30-Nov-20 12:45 33.637476 -117.909498 231 1730ft 135kts
30-Nov-20 12:46 33.614190 -117.944215 231 2636ft 129kts
30-Nov-20 12:47 33.600072 -117.980854 293 3533ft 126kts
30-Nov-20 12:48 33.624507 -118.012836 314 4031ft 141kts
30-Nov-20 12:49 33.653500 -118.048830 314 4028ft 152kts
30-Nov-20 12:50 33.680965 -118.083433 313 4027ft 153kts
30-Nov-20 12:51 33.710775 -118.121117 313 4028ft 153kts
30-Nov-20 12:52 33.738789 -118.156579 313 4029ft 153kts
30-Nov-20 12:53 33.764799 -118.189538 313 4031ft 153kts
30-Nov-20 12:54 33.786615 -118.217197 313 4032ft 155kts
30-Nov-20 12:55 33.813280 -118.251016 313 4033ft 155kts
30-Nov-20 12:56 33.835816 -118.279667 313 4034ft 155kts
30-Nov-20 12:57 33.867224 -118.312981 320 4035ft 155kts
30-Nov-20 12:58 33.900367 -118.346235 320 4036ft 155kts
30-Nov-20 12:59 33.924258 -118.370233 320 4036ft 155kts
30-Nov-20 13:00 33.956022 -118.402168 320 4036ft 155kts
30-Nov-20 13:01 33.989138 -118.435498 320 4036ft 154kts
30-Nov-20 13:02 34.017639 -118.461172 330 4035ft 154kts
30-Nov-20 13:03 34.056406 -118.503106 310 4035ft 153kts
30-Nov-20 13:04 34.097156 -118.563417 310 4017ft 152kts
30-Nov-20 13:05 34.124040 -118.603209 310 4019ft 151kts
30-Nov-20 13:06 34.153253 -118.641248 335 3993ft 152kts
30-Nov-20 13:07 34.190564 -118.622855 38 3997ft 158kts
30-Nov-20 13:08 34.220070 -118.591467 39 3994ft 129kts
30-Nov-20 13:09 34.245490 -118.562646 49 3836ft 114kts
30-Nov-20 13:10 34.253532 -118.531622 89 2744ft 93kts
30-Nov-20 13:11 34.242318 -118.503540 120 1882ft 96kts
30-Nov-20 13:12 34.221852 -118.491314 177 998ft 77kts
30-Nov-20 13:13 34.208234 -118.490982 206 806ft 7kts
30-Nov-20 13:14 34.207459 -118.491309 183 806ft 5kts
30-Nov-20 13:15 34.203508 -118.490968 199 806ft 12kts

Navigation Log

Ident Type
Flight plan parsing failed, navigation log unavailable